sensor_id;sensor_type;location;lat;lon;timestamp;P1;durP1;ratioP1;P2;durP2;ratioP2
51382;SDS011;37475;43.358;1.248;2023-04-15T00:01:20;13.70;;;2.55;;
51382;SDS011;37475;43.358;1.248;2023-04-15T00:03:46;16.20;;;2.63;;
51382;SDS011;37475;43.358;1.248;2023-04-15T00:06:14;14.23;;;2.92;;
51382;SDS011;37475;43.358;1.248;2023-04-15T00:08:40;11.50;;;2.13;;
51382;SDS011;37475;43.358;1.248;2023-04-15T00:11:06;20.58;;;2.90;;
51382;SDS011;37475;43.358;1.248;2023-04-15T00:13:32;10.45;;;2.10;;
51382;SDS011;37475;43.358;1.248;2023-04-15T00:16:00;14.30;;;2.63;;
51382;SDS011;37475;43.358;1.248;2023-04-15T00:18:26;16.02;;;3.42;;
51382;SDS011;37475;43.358;1.248;2023-04-15T00:20:53;17.17;;;3.15;;
51382;SDS011;37475;43.358;1.248;2023-04-15T00:23:19;19.65;;;3.25;;
51382;SDS011;37475;43.358;1.248;2023-04-15T00:25:45;25.27;;;3.80;;
51382;SDS011;37475;43.358;1.248;2023-04-15T00:28:11;28.90;;;4.28;;
51382;SDS011;37475;43.358;1.248;2023-04-15T00:30:37;25.90;;;4.90;;
51382;SDS011;37475;43.358;1.248;2023-04-15T00:33:03;23.67;;;3.42;;
51382;SDS011;37475;43.358;1.248;2023-04-15T00:35:29;21.77;;;3.25;;
51382;SDS011;37475;43.358;1.248;2023-04-15T00:37:58;27.52;;;4.25;;
51382;SDS011;37475;43.358;1.248;2023-04-15T00:40:24;26.75;;;4.15;;
51382;SDS011;37475;43.358;1.248;2023-04-15T00:42:50;22.00;;;3.95;;
51382;SDS011;37475;43.358;1.248;2023-04-15T00:45:16;26.58;;;4.25;;
51382;SDS011;37475;43.358;1.248;2023-04-15T00:47:43;18.45;;;3.38;;
51382;SDS011;37475;43.358;1.248;2023-04-15T00:50:10;16.30;;;2.80;;
51382;SDS011;37475;43.358;1.248;2023-04-15T00:52:37;24.70;;;3.88;;
51382;SDS011;37475;43.358;1.248;2023-04-15T00:55:03;18.45;;;3.30;;
51382;SDS011;37475;43.358;1.248;2023-04-15T00:57:30;35.08;;;4.43;;
51382;SDS011;37475;43.358;1.248;2023-04-15T00:59:57;25.50;;;3.67;;
51382;SDS011;37475;43.358;1.248;2023-04-15T01:02:25;16.15;;;2.97;;
51382;SDS011;37475;43.358;1.248;2023-04-15T01:04:51;30.15;;;4.30;;
51382;SDS011;37475;43.358;1.248;2023-04-15T01:07:17;32.00;;;3.95;;
51382;SDS011;37475;43.358;1.248;2023-04-15T01:09:42;21.63;;;4.18;;
51382;SDS011;37475;43.358;1.248;2023-04-15T01:12:11;28.67;;;3.95;;
51382;SDS011;37475;43.358;1.248;2023-04-15T01:14:39;25.65;;;3.55;;
51382;SDS011;37475;43.358;1.248;2023-04-15T01:17:05;21.92;;;4.53;;
51382;SDS011;37475;43.358;1.248;2023-04-15T01:19:31;21.15;;;3.00;;
51382;SDS011;37475;43.358;1.248;2023-04-15T01:21:57;21.27;;;3.65;;
51382;SDS011;37475;43.358;1.248;2023-04-15T01:24:23;24.65;;;4.18;;
51382;SDS011;37475;43.358;1.248;2023-04-15T01:26:52;24.88;;;3.70;;
51382;SDS011;37475;43.358;1.248;2023-04-15T01:29:18;16.17;;;2.38;;
51382;SDS011;37475;43.358;1.248;2023-04-15T01:31:50;16.05;;;2.67;;
51382;SDS011;37475;43.358;1.248;2023-04-15T01:34:18;19.33;;;3.53;;
51382;SDS011;37475;43.358;1.248;2023-04-15T01:36:44;17.17;;;2.85;;
51382;SDS011;37475;43.358;1.248;2023-04-15T01:39:10;17.98;;;3.58;;
51382;SDS011;37475;43.358;1.248;2023-04-15T01:41:36;26.05;;;3.67;;
51382;SDS011;37475;43.358;1.248;2023-04-15T01:44:02;21.23;;;3.78;;
51382;SDS011;37475;43.358;1.248;2023-04-15T01:46:28;22.92;;;3.75;;
51382;SDS011;37475;43.358;1.248;2023-04-15T01:48:54;21.92;;;3.25;;
51382;SDS011;37475;43.358;1.248;2023-04-15T01:51:20;18.45;;;3.55;;
51382;SDS011;37475;43.358;1.248;2023-04-15T01:53:46;25.00;;;3.80;;
51382;SDS011;37475;43.358;1.248;2023-04-15T01:56:12;18.95;;;2.95;;
51382;SDS011;37475;43.358;1.248;2023-04-15T01:58:38;24.10;;;2.80;;
51382;SDS011;37475;43.358;1.248;2023-04-15T02:01:04;16.30;;;3.40;;
51382;SDS011;37475;43.358;1.248;2023-04-15T02:03:30;24.02;;;3.85;;
51382;SDS011;37475;43.358;1.248;2023-04-15T02:05:56;14.15;;;2.65;;
51382;SDS011;37475;43.358;1.248;2023-04-15T02:08:22;17.40;;;2.63;;
51382;SDS011;37475;43.358;1.248;2023-04-15T02:10:48;13.65;;;2.92;;
51382;SDS011;37475;43.358;1.248;2023-04-15T02:13:14;20.08;;;3.22;;
51382;SDS011;37475;43.358;1.248;2023-04-15T02:15:45;17.38;;;2.95;;
51382;SDS011;37475;43.358;1.248;2023-04-15T02:18:16;16.40;;;2.70;;
51382;SDS011;37475;43.358;1.248;2023-04-15T02:20:42;17.42;;;2.92;;
51382;SDS011;37475;43.358;1.248;2023-04-15T02:23:08;15.02;;;2.88;;
51382;SDS011;37475;43.358;1.248;2023-04-15T02:25:35;20.45;;;2.78;;
51382;SDS011;37475;43.358;1.248;2023-04-15T02:28:02;17.88;;;2.95;;
51382;SDS011;37475;43.358;1.248;2023-04-15T02:30:30;23.50;;;3.03;;
51382;SDS011;37475;43.358;1.248;2023-04-15T02:32:56;17.05;;;3.15;;
51382;SDS011;37475;43.358;1.248;2023-04-15T02:35:22;18.10;;;2.72;;
51382;SDS011;37475;43.358;1.248;2023-04-15T02:37:49;11.63;;;2.22;;
51382;SDS011;37475;43.358;1.248;2023-04-15T02:40:15;18.02;;;2.78;;
51382;SDS011;37475;43.358;1.248;2023-04-15T02:42:42;12.35;;;1.90;;
51382;SDS011;37475;43.358;1.248;2023-04-15T02:45:08;17.50;;;2.83;;
51382;SDS011;37475;43.358;1.248;2023-04-15T02:47:36;13.90;;;2.85;;
51382;SDS011;37475;43.358;1.248;2023-04-15T02:50:08;21.10;;;2.70;;
51382;SDS011;37475;43.358;1.248;2023-04-15T02:52:38;17.50;;;2.50;;
51382;SDS011;37475;43.358;1.248;2023-04-15T02:55:05;20.75;;;3.35;;
51382;SDS011;37475;43.358;1.248;2023-04-15T02:57:32;15.73;;;3.85;;
51382;SDS011;37475;43.358;1.248;2023-04-15T02:59:59;12.80;;;1.70;;
51382;SDS011;37475;43.358;1.248;2023-04-15T03:02:24;13.23;;;2.33;;
51382;SDS011;37475;43.358;1.248;2023-04-15T03:04:50;11.35;;;1.90;;
51382;SDS011;37475;43.358;1.248;2023-04-15T03:07:16;19.10;;;2.72;;
51382;SDS011;37475;43.358;1.248;2023-04-15T03:09:42;16.98;;;2.70;;
51382;SDS011;37475;43.358;1.248;2023-04-15T03:12:08;25.25;;;3.05;;
51382;SDS011;37475;43.358;1.248;2023-04-15T03:14:34;10.30;;;1.70;;
51382;SDS011;37475;43.358;1.248;2023-04-15T03:17:00;12.88;;;2.20;;
51382;SDS011;37475;43.358;1.248;2023-04-15T03:19:26;17.65;;;2.92;;
51382;SDS011;37475;43.358;1.248;2023-04-15T03:21:51;14.45;;;3.00;;
51382;SDS011;37475;43.358;1.248;2023-04-15T03:24:17;11.68;;;2.47;;
51382;SDS011;37475;43.358;1.248;2023-04-15T03:26:44;14.75;;;2.72;;
51382;SDS011;37475;43.358;1.248;2023-04-15T03:29:10;16.27;;;2.38;;
51382;SDS011;37475;43.358;1.248;2023-04-15T03:31:36;12.27;;;2.10;;
51382;SDS011;37475;43.358;1.248;2023-04-15T03:34:01;12.73;;;2.33;;
51382;SDS011;37475;43.358;1.248;2023-04-15T03:36:28;15.43;;;2.40;;
51382;SDS011;37475;43.358;1.248;2023-04-15T03:38:58;9.82;;;1.80;;
51382;SDS011;37475;43.358;1.248;2023-04-15T03:41:26;8.30;;;2.25;;
51382;SDS011;37475;43.358;1.248;2023-04-15T03:43:52;10.45;;;1.80;;
51382;SDS011;37475;43.358;1.248;2023-04-15T03:46:18;8.50;;;1.60;;
51382;SDS011;37475;43.358;1.248;2023-04-15T03:48:45;9.93;;;1.27;;
51382;SDS011;37475;43.358;1.248;2023-04-15T03:51:11;9.55;;;1.67;;
51382;SDS011;37475;43.358;1.248;2023-04-15T03:53:37;9.05;;;1.58;;
51382;SDS011;37475;43.358;1.248;2023-04-15T03:56:03;10.63;;;1.83;;
51382;SDS011;37475;43.358;1.248;2023-04-15T03:58:29;9.05;;;1.67;;
51382;SDS011;37475;43.358;1.248;2023-04-15T04:00:55;8.77;;;2.47;;
51382;SDS011;37475;43.358;1.248;2023-04-15T04:03:21;8.98;;;1.90;;
51382;SDS011;37475;43.358;1.248;2023-04-15T04:05:46;15.95;;;2.45;;
51382;SDS011;37475;43.358;1.248;2023-04-15T04:08:12;8.52;;;1.48;;
51382;SDS011;37475;43.358;1.248;2023-04-15T04:10:40;9.80;;;2.13;;
51382;SDS011;37475;43.358;1.248;2023-04-15T04:13:06;12.63;;;1.80;;
51382;SDS011;37475;43.358;1.248;2023-04-15T04:15:32;5.60;;;1.23;;
51382;SDS011;37475;43.358;1.248;2023-04-15T04:17:58;7.65;;;1.67;;
51382;SDS011;37475;43.358;1.248;2023-04-15T04:20:23;8.80;;;1.67;;
51382;SDS011;37475;43.358;1.248;2023-04-15T04:22:49;8.80;;;1.30;;
51382;SDS011;37475;43.358;1.248;2023-04-15T04:25:15;7.70;;;1.30;;
51382;SDS011;37475;43.358;1.248;2023-04-15T04:27:41;6.05;;;1.13;;
51382;SDS011;37475;43.358;1.248;2023-04-15T04:30:07;5.20;;;1.35;;
51382;SDS011;37475;43.358;1.248;2023-04-15T04:32:33;3.22;;;0.77;;
51382;SDS011;37475;43.358;1.248;2023-04-15T04:34:59;13.88;;;1.73;;
51382;SDS011;37475;43.358;1.248;2023-04-15T04:37:25;3.63;;;0.80;;
51382;SDS011;37475;43.358;1.248;2023-04-15T04:39:51;4.90;;;1.10;;
51382;SDS011;37475;43.358;1.248;2023-04-15T04:42:17;4.55;;;0.82;;
51382;SDS011;37475;43.358;1.248;2023-04-15T04:44:42;4.93;;;1.17;;
51382;SDS011;37475;43.358;1.248;2023-04-15T04:47:09;5.88;;;1.10;;
51382;SDS011;37475;43.358;1.248;2023-04-15T04:49:35;4.88;;;1.20;;
51382;SDS011;37475;43.358;1.248;2023-04-15T04:52:01;4.65;;;0.82;;
51382;SDS011;37475;43.358;1.248;2023-04-15T04:54:27;5.00;;;1.10;;
51382;SDS011;37475;43.358;1.248;2023-04-15T04:56:54;4.93;;;0.98;;
51382;SDS011;37475;43.358;1.248;2023-04-15T04:59:21;4.63;;;1.20;;
51382;SDS011;37475;43.358;1.248;2023-04-15T05:01:48;6.25;;;1.00;;
51382;SDS011;37475;43.358;1.248;2023-04-15T05:04:14;3.65;;;0.68;;
51382;SDS011;37475;43.358;1.248;2023-04-15T05:06:39;4.82;;;1.42;;
51382;SDS011;37475;43.358;1.248;2023-04-15T05:09:05;4.10;;;1.13;;
51382;SDS011;37475;43.358;1.248;2023-04-15T05:11:31;3.30;;;0.90;;
51382;SDS011;37475;43.358;1.248;2023-04-15T05:13:57;2.63;;;0.80;;
51382;SDS011;37475;43.358;1.248;2023-04-15T05:16:25;4.68;;;0.90;;
51382;SDS011;37475;43.358;1.248;2023-04-15T05:18:51;4.40;;;0.85;;
51382;SDS011;37475;43.358;1.248;2023-04-15T05:21:17;2.88;;;0.57;;
51382;SDS011;37475;43.358;1.248;2023-04-15T05:23:43;3.45;;;0.77;;
51382;SDS011;37475;43.358;1.248;2023-04-15T05:26:09;4.18;;;0.95;;
51382;SDS011;37475;43.358;1.248;2023-04-15T05:28:35;5.18;;;0.93;;
51382;SDS011;37475;43.358;1.248;2023-04-15T05:31:01;5.47;;;1.02;;
51382;SDS011;37475;43.358;1.248;2023-04-15T05:33:27;6.35;;;1.17;;
51382;SDS011;37475;43.358;1.248;2023-04-15T05:35:53;7.25;;;1.05;;
51382;SDS011;37475;43.358;1.248;2023-04-15T05:38:18;5.05;;;1.17;;
51382;SDS011;37475;43.358;1.248;2023-04-15T05:40:44;9.57;;;1.35;;
51382;SDS011;37475;43.358;1.248;2023-04-15T05:43:10;5.05;;;1.10;;
51382;SDS011;37475;43.358;1.248;2023-04-15T05:45:36;6.78;;;1.20;;
51382;SDS011;37475;43.358;1.248;2023-04-15T05:48:01;7.05;;;1.17;;
51382;SDS011;37475;43.358;1.248;2023-04-15T05:50:27;8.07;;;1.70;;
51382;SDS011;37475;43.358;1.248;2023-04-15T05:52:53;12.82;;;1.30;;
51382;SDS011;37475;43.358;1.248;2023-04-15T05:55:19;10.25;;;1.73;;
51382;SDS011;37475;43.358;1.248;2023-04-15T05:57:46;6.75;;;2.22;;
51382;SDS011;37475;43.358;1.248;2023-04-15T06:00:12;5.88;;;1.25;;
51382;SDS011;37475;43.358;1.248;2023-04-15T06:02:39;7.93;;;1.60;;
51382;SDS011;37475;43.358;1.248;2023-04-15T06:05:05;11.48;;;1.67;;
51382;SDS011;37475;43.358;1.248;2023-04-15T06:07:34;10.00;;;1.67;;
51382;SDS011;37475;43.358;1.248;2023-04-15T06:10:01;6.03;;;1.40;;
51382;SDS011;37475;43.358;1.248;2023-04-15T06:12:28;9.60;;;1.85;;
51382;SDS011;37475;43.358;1.248;2023-04-15T06:14:54;8.48;;;1.60;;
51382;SDS011;37475;43.358;1.248;2023-04-15T06:17:20;4.22;;;1.10;;
51382;SDS011;37475;43.358;1.248;2023-04-15T06:19:46;6.38;;;1.48;;
51382;SDS011;37475;43.358;1.248;2023-04-15T06:22:11;7.93;;;1.50;;
51382;SDS011;37475;43.358;1.248;2023-04-15T06:24:37;7.35;;;1.75;;
51382;SDS011;37475;43.358;1.248;2023-04-15T06:27:03;6.75;;;1.50;;
51382;SDS011;37475;43.358;1.248;2023-04-15T06:29:29;11.45;;;2.08;;
51382;SDS011;37475;43.358;1.248;2023-04-15T06:31:55;9.00;;;2.08;;
51382;SDS011;37475;43.358;1.248;2023-04-15T06:34:21;14.68;;;2.30;;
51382;SDS011;37475;43.358;1.248;2023-04-15T06:36:47;9.93;;;2.05;;
51382;SDS011;37475;43.358;1.248;2023-04-15T06:39:12;10.07;;;2.80;;
51382;SDS011;37475;43.358;1.248;2023-04-15T06:41:38;5.32;;;1.83;;
51382;SDS011;37475;43.358;1.248;2023-04-15T06:44:04;8.43;;;2.05;;
51382;SDS011;37475;43.358;1.248;2023-04-15T06:46:31;11.13;;;2.22;;
51382;SDS011;37475;43.358;1.248;2023-04-15T06:48:56;7.05;;;2.13;;
51382;SDS011;37475;43.358;1.248;2023-04-15T06:51:22;16.50;;;3.03;;
51382;SDS011;37475;43.358;1.248;2023-04-15T06:53:48;11.20;;;3.00;;
51382;SDS011;37475;43.358;1.248;2023-04-15T06:56:14;5.53;;;2.05;;
51382;SDS011;37475;43.358;1.248;2023-04-15T06:58:40;7.65;;;2.00;;
51382;SDS011;37475;43.358;1.248;2023-04-15T07:01:06;8.68;;;1.98;;
51382;SDS011;37475;43.358;1.248;2023-04-15T07:03:31;8.20;;;2.65;;
51382;SDS011;37475;43.358;1.248;2023-04-15T07:05:57;10.55;;;2.67;;
51382;SDS011;37475;43.358;1.248;2023-04-15T07:08:23;10.65;;;2.25;;
51382;SDS011;37475;43.358;1.248;2023-04-15T07:10:49;9.35;;;2.20;;
51382;SDS011;37475;43.358;1.248;2023-04-15T07:13:15;6.28;;;1.98;;
51382;SDS011;37475;43.358;1.248;2023-04-15T07:15:41;8.57;;;1.90;;
51382;SDS011;37475;43.358;1.248;2023-04-15T07:18:07;9.93;;;2.90;;
51382;SDS011;37475;43.358;1.248;2023-04-15T07:20:33;5.53;;;1.70;;
51382;SDS011;37475;43.358;1.248;2023-04-15T07:22:59;6.05;;;2.03;;
51382;SDS011;37475;43.358;1.248;2023-04-15T07:25:25;6.97;;;2.83;;
51382;SDS011;37475;43.358;1.248;2023-04-15T07:27:51;4.10;;;1.70;;
51382;SDS011;37475;43.358;1.248;2023-04-15T07:30:18;5.53;;;1.50;;
51382;SDS011;37475;43.358;1.248;2023-04-15T07:32:43;5.68;;;1.38;;
51382;SDS011;37475;43.358;1.248;2023-04-15T07:35:09;10.02;;;1.80;;
51382;SDS011;37475;43.358;1.248;2023-04-15T07:37:35;4.90;;;1.50;;
51382;SDS011;37475;43.358;1.248;2023-04-15T07:40:01;5.45;;;1.40;;
51382;SDS011;37475;43.358;1.248;2023-04-15T07:42:29;7.30;;;1.70;;
51382;SDS011;37475;43.358;1.248;2023-04-15T07:44:55;5.38;;;1.30;;
51382;SDS011;37475;43.358;1.248;2023-04-15T07:47:21;7.30;;;1.40;;
51382;SDS011;37475;43.358;1.248;2023-04-15T07:49:46;6.10;;;1.38;;
51382;SDS011;37475;43.358;1.248;2023-04-15T07:52:13;4.13;;;1.20;;
51382;SDS011;37475;43.358;1.248;2023-04-15T07:54:39;3.47;;;0.70;;
51382;SDS011;37475;43.358;1.248;2023-04-15T07:57:04;4.85;;;1.10;;
51382;SDS011;37475;43.358;1.248;2023-04-15T07:59:30;6.80;;;1.40;;
51382;SDS011;37475;43.358;1.248;2023-04-15T08:01:57;6.97;;;1.35;;
51382;SDS011;37475;43.358;1.248;2023-04-15T08:04:23;5.68;;;1.10;;
51382;SDS011;37475;43.358;1.248;2023-04-15T08:06:49;3.70;;;0.90;;
51382;SDS011;37475;43.358;1.248;2023-04-15T08:09:16;1.98;;;0.55;;
51382;SDS011;37475;43.358;1.248;2023-04-15T08:11:42;1.80;;;0.50;;
51382;SDS011;37475;43.358;1.248;2023-04-15T08:14:07;1.63;;;0.50;;
51382;SDS011;37475;43.358;1.248;2023-04-15T08:16:33;2.47;;;0.60;;
51382;SDS011;37475;43.358;1.248;2023-04-15T08:18:59;1.15;;;0.57;;
51382;SDS011;37475;43.358;1.248;2023-04-15T08:21:25;4.15;;;0.77;;
51382;SDS011;37475;43.358;1.248;2023-04-15T08:23:51;1.50;;;0.50;;
51382;SDS011;37475;43.358;1.248;2023-04-15T08:26:18;2.47;;;0.50;;
51382;SDS011;37475;43.358;1.248;2023-04-15T08:28:45;3.55;;;0.90;;
51382;SDS011;37475;43.358;1.248;2023-04-15T08:31:11;2.63;;;0.60;;
51382;SDS011;37475;43.358;1.248;2023-04-15T08:33:41;2.58;;;0.65;;
51382;SDS011;37475;43.358;1.248;2023-04-15T08:36:07;3.03;;;0.68;;
51382;SDS011;37475;43.358;1.248;2023-04-15T08:38:33;4.72;;;0.70;;
51382;SDS011;37475;43.358;1.248;2023-04-15T08:41:02;2.95;;;0.60;;
51382;SDS011;37475;43.358;1.248;2023-04-15T08:43:52;3.92;;;0.77;;
51382;SDS011;37475;43.358;1.248;2023-04-15T08:46:18;1.25;;;0.50;;
51382;SDS011;37475;43.358;1.248;2023-04-15T08:48:46;2.22;;;0.60;;
51382;SDS011;37475;43.358;1.248;2023-04-15T08:51:13;4.63;;;0.88;;
51382;SDS011;37475;43.358;1.248;2023-04-15T08:53:43;3.92;;;0.68;;
51382;SDS011;37475;43.358;1.248;2023-04-15T08:56:11;3.97;;;1.20;;
51382;SDS011;37475;43.358;1.248;2023-04-15T08:58:40;5.18;;;1.00;;
51382;SDS011;37475;43.358;1.248;2023-04-15T09:01:11;6.93;;;1.25;;
51382;SDS011;37475;43.358;1.248;2023-04-15T09:03:37;4.60;;;0.68;;
51382;SDS011;37475;43.358;1.248;2023-04-15T09:06:04;4.65;;;0.90;;
51382;SDS011;37475;43.358;1.248;2023-04-15T09:08:31;4.75;;;0.77;;
51382;SDS011;37475;43.358;1.248;2023-04-15T09:11:03;4.60;;;0.80;;
51382;SDS011;37475;43.358;1.248;2023-04-15T09:13:29;6.95;;;0.90;;
51382;SDS011;37475;43.358;1.248;2023-04-15T09:15:55;6.90;;;0.98;;
51382;SDS011;37475;43.358;1.248;2023-04-15T09:18:29;6.70;;;1.00;;
51382;SDS011;37475;43.358;1.248;2023-04-15T09:21:06;3.90;;;0.90;;
51382;SDS011;37475;43.358;1.248;2023-04-15T09:23:38;4.65;;;1.00;;
51382;SDS011;37475;43.358;1.248;2023-04-15T09:26:19;3.33;;;0.80;;
51382;SDS011;37475;43.358;1.248;2023-04-15T09:28:59;3.90;;;1.00;;
51382;SDS011;37475;43.358;1.248;2023-04-15T09:31:31;7.53;;;1.40;;
51382;SDS011;37475;43.358;1.248;2023-04-15T09:33:57;5.88;;;1.30;;
51382;SDS011;37475;43.358;1.248;2023-04-15T09:36:23;5.90;;;1.23;;
51382;SDS011;37475;43.358;1.248;2023-04-15T09:38:54;4.40;;;1.00;;
51382;SDS011;37475;43.358;1.248;2023-04-15T09:41:24;6.20;;;1.20;;
51382;SDS011;37475;43.358;1.248;2023-04-15T09:43:51;5.90;;;1.20;;
51382;SDS011;37475;43.358;1.248;2023-04-15T09:46:17;6.38;;;1.20;;
51382;SDS011;37475;43.358;1.248;2023-04-15T09:48:43;6.43;;;1.05;;
51382;SDS011;37475;43.358;1.248;2023-04-15T09:51:09;8.38;;;1.50;;
51382;SDS011;37475;43.358;1.248;2023-04-15T09:53:35;5.63;;;1.08;;
51382;SDS011;37475;43.358;1.248;2023-04-15T09:56:02;6.72;;;1.15;;
51382;SDS011;37475;43.358;1.248;2023-04-15T09:58:32;4.40;;;0.98;;
51382;SDS011;37475;43.358;1.248;2023-04-15T10:01:01;6.05;;;1.13;;
51382;SDS011;37475;43.358;1.248;2023-04-15T10:03:29;4.95;;;1.13;;
51382;SDS011;37475;43.358;1.248;2023-04-15T10:05:58;6.63;;;1.20;;
51382;SDS011;37475;43.358;1.248;2023-04-15T10:08:26;8.43;;;1.10;;
51382;SDS011;37475;43.358;1.248;2023-04-15T10:10:55;6.53;;;1.50;;
51382;SDS011;37475;43.358;1.248;2023-04-15T10:13:25;6.43;;;1.08;;
51382;SDS011;37475;43.358;1.248;2023-04-15T10:16:00;6.57;;;1.10;;
51382;SDS011;37475;43.358;1.248;2023-04-15T10:18:43;4.63;;;1.13;;
51382;SDS011;37475;43.358;1.248;2023-04-15T10:21:11;8.23;;;1.35;;
51382;SDS011;37475;43.358;1.248;2023-04-15T10:23:40;8.02;;;1.50;;
51382;SDS011;37475;43.358;1.248;2023-04-15T10:26:06;9.13;;;1.25;;
51382;SDS011;37475;43.358;1.248;2023-04-15T10:28:36;6.40;;;1.00;;
51382;SDS011;37475;43.358;1.248;2023-04-15T10:31:02;7.57;;;1.05;;
51382;SDS011;37475;43.358;1.248;2023-04-15T10:33:30;6.70;;;1.10;;
51382;SDS011;37475;43.358;1.248;2023-04-15T10:35:56;7.78;;;1.20;;
51382;SDS011;37475;43.358;1.248;2023-04-15T10:41:11;7.72;;;1.45;;
51382;SDS011;37475;43.358;1.248;2023-04-15T10:43:50;10.02;;;1.63;;
51382;SDS011;37475;43.358;1.248;2023-04-15T10:49:11;4.63;;;1.30;;
51382;SDS011;37475;43.358;1.248;2023-04-15T10:51:52;7.88;;;1.67;;
51382;SDS011;37475;43.358;1.248;2023-04-15T10:57:06;1.73;;;0.77;;
51382;SDS011;37475;43.358;1.248;2023-04-15T10:59:58;6.57;;;1.30;;
51382;SDS011;37475;43.358;1.248;2023-04-15T11:08:05;7.90;;;1.38;;
51382;SDS011;37475;43.358;1.248;2023-04-15T11:13:01;8.88;;;1.50;;
51382;SDS011;37475;43.358;1.248;2023-04-15T11:15:53;4.65;;;1.00;;
51382;SDS011;37475;43.358;1.248;2023-04-15T11:20:51;4.85;;;1.50;;
51382;SDS011;37475;43.358;1.248;2023-04-15T11:25:56;8.77;;;1.27;;
51382;SDS011;37475;43.358;1.248;2023-04-15T11:28:24;4.25;;;1.00;;
51382;SDS011;37475;43.358;1.248;2023-04-15T11:30:52;4.55;;;1.10;;
51382;SDS011;37475;43.358;1.248;2023-04-15T11:33:20;5.82;;;1.00;;
51382;SDS011;37475;43.358;1.248;2023-04-15T11:35:47;4.88;;;1.10;;
51382;SDS011;37475;43.358;1.248;2023-04-15T11:38:13;6.30;;;1.00;;
51382;SDS011;37475;43.358;1.248;2023-04-15T11:40:41;4.60;;;1.10;;
51382;SDS011;37475;43.358;1.248;2023-04-15T11:43:18;4.90;;;1.02;;
51382;SDS011;37475;43.358;1.248;2023-04-15T11:48:22;4.50;;;1.17;;
51382;SDS011;37475;43.358;1.248;2023-04-15T11:50:55;5.63;;;1.30;;
51382;SDS011;37475;43.358;1.248;2023-04-15T11:53:41;7.82;;;1.10;;
51382;SDS011;37475;43.358;1.248;2023-04-15T11:56:24;5.28;;;1.10;;
51382;SDS011;37475;43.358;1.248;2023-04-15T11:58:56;7.45;;;1.10;;
51382;SDS011;37475;43.358;1.248;2023-04-15T12:01:45;2.38;;;0.93;;
51382;SDS011;37475;43.358;1.248;2023-04-15T12:04:15;3.83;;;1.02;;
51382;SDS011;37475;43.358;1.248;2023-04-15T12:06:44;5.25;;;1.20;;
51382;SDS011;37475;43.358;1.248;2023-04-15T12:09:11;5.43;;;1.27;;
51382;SDS011;37475;43.358;1.248;2023-04-15T12:11:42;4.53;;;0.95;;
51382;SDS011;37475;43.358;1.248;2023-04-15T12:16:46;4.20;;;0.90;;
51382;SDS011;37475;43.358;1.248;2023-04-15T12:19:22;5.15;;;1.02;;
51382;SDS011;37475;43.358;1.248;2023-04-15T12:21:52;6.13;;;1.10;;
51382;SDS011;37475;43.358;1.248;2023-04-15T12:24:32;2.80;;;1.00;;
51382;SDS011;37475;43.358;1.248;2023-04-15T12:27:00;2.40;;;0.80;;
51382;SDS011;37475;43.358;1.248;2023-04-15T12:29:32;6.13;;;1.02;;
51382;SDS011;37475;43.358;1.248;2023-04-15T12:32:04;5.30;;;1.20;;
51382;SDS011;37475;43.358;1.248;2023-04-15T12:34:41;4.07;;;1.10;;
51382;SDS011;37475;43.358;1.248;2023-04-15T12:39:41;2.70;;;0.93;;
51382;SDS011;37475;43.358;1.248;2023-04-15T12:42:08;5.82;;;1.00;;
51382;SDS011;37475;43.358;1.248;2023-04-15T12:44:35;5.90;;;0.85;;
51382;SDS011;37475;43.358;1.248;2023-04-15T12:47:02;4.38;;;1.42;;
51382;SDS011;37475;43.358;1.248;2023-04-15T12:49:29;4.38;;;0.80;;
51382;SDS011;37475;43.358;1.248;2023-04-15T12:51:56;5.65;;;1.20;;
51382;SDS011;37475;43.358;1.248;2023-04-15T12:54:24;10.15;;;1.23;;
51382;SDS011;37475;43.358;1.248;2023-04-15T12:56:52;4.50;;;1.02;;
51382;SDS011;37475;43.358;1.248;2023-04-15T12:59:18;6.68;;;1.55;;
51382;SDS011;37475;43.358;1.248;2023-04-15T13:01:45;4.57;;;1.20;;
51382;SDS011;37475;43.358;1.248;2023-04-15T13:04:12;2.92;;;1.10;;
51382;SDS011;37475;43.358;1.248;2023-04-15T13:06:39;10.02;;;1.17;;
51382;SDS011;37475;43.358;1.248;2023-04-15T13:09:05;3.58;;;0.90;;
51382;SDS011;37475;43.358;1.248;2023-04-15T13:11:31;5.18;;;1.02;;
51382;SDS011;37475;43.358;1.248;2023-04-15T13:14:01;3.88;;;0.90;;
51382;SDS011;37475;43.358;1.248;2023-04-15T13:16:29;4.25;;;1.10;;
51382;SDS011;37475;43.358;1.248;2023-04-15T13:18:57;6.47;;;1.15;;
51382;SDS011;37475;43.358;1.248;2023-04-15T13:21:24;4.72;;;0.88;;
51382;SDS011;37475;43.358;1.248;2023-04-15T13:23:51;4.03;;;1.02;;
51382;SDS011;37475;43.358;1.248;2023-04-15T13:26:17;5.75;;;1.60;;
51382;SDS011;37475;43.358;1.248;2023-04-15T13:28:44;8.70;;;1.00;;
51382;SDS011;37475;43.358;1.248;2023-04-15T13:31:10;3.78;;;0.80;;
51382;SDS011;37475;43.358;1.248;2023-04-15T13:33:36;1.42;;;0.70;;
51382;SDS011;37475;43.358;1.248;2023-04-15T13:36:02;4.38;;;0.98;;
51382;SDS011;37475;43.358;1.248;2023-04-15T13:38:28;7.63;;;1.48;;
51382;SDS011;37475;43.358;1.248;2023-04-15T13:40:54;4.97;;;1.13;;
51382;SDS011;37475;43.358;1.248;2023-04-15T13:43:20;4.57;;;1.02;;
51382;SDS011;37475;43.358;1.248;2023-04-15T13:45:46;2.55;;;0.80;;
51382;SDS011;37475;43.358;1.248;2023-04-15T13:48:12;5.88;;;1.10;;
51382;SDS011;37475;43.358;1.248;2023-04-15T13:50:38;6.00;;;0.95;;
51382;SDS011;37475;43.358;1.248;2023-04-15T13:53:09;4.07;;;1.13;;
51382;SDS011;37475;43.358;1.248;2023-04-15T13:55:35;4.10;;;0.95;;
51382;SDS011;37475;43.358;1.248;2023-04-15T13:58:05;5.00;;;1.02;;
51382;SDS011;37475;43.358;1.248;2023-04-15T14:00:32;5.47;;;1.10;;
51382;SDS011;37475;43.358;1.248;2023-04-15T14:02:58;3.83;;;0.93;;
51382;SDS011;37475;43.358;1.248;2023-04-15T14:05:23;4.28;;;1.17;;
51382;SDS011;37475;43.358;1.248;2023-04-15T14:07:49;7.40;;;1.13;;
51382;SDS011;37475;43.358;1.248;2023-04-15T14:10:15;6.05;;;1.30;;
51382;SDS011;37475;43.358;1.248;2023-04-15T14:12:41;6.13;;;1.38;;
51382;SDS011;37475;43.358;1.248;2023-04-15T14:15:07;2.92;;;0.95;;
51382;SDS011;37475;43.358;1.248;2023-04-15T14:17:33;3.72;;;0.85;;
51382;SDS011;37475;43.358;1.248;2023-04-15T14:19:59;4.70;;;0.80;;
51382;SDS011;37475;43.358;1.248;2023-04-15T14:22:25;4.35;;;0.80;;
51382;SDS011;37475;43.358;1.248;2023-04-15T14:24:50;4.20;;;1.00;;
51382;SDS011;37475;43.358;1.248;2023-04-15T14:27:18;3.03;;;0.90;;
51382;SDS011;37475;43.358;1.248;2023-04-15T14:29:44;7.55;;;1.20;;
51382;SDS011;37475;43.358;1.248;2023-04-15T14:32:09;4.93;;;1.20;;
51382;SDS011;37475;43.358;1.248;2023-04-15T14:34:35;3.35;;;0.80;;
51382;SDS011;37475;43.358;1.248;2023-04-15T14:37:01;3.42;;;0.82;;
51382;SDS011;37475;43.358;1.248;2023-04-15T14:39:27;8.45;;;1.38;;
51382;SDS011;37475;43.358;1.248;2023-04-15T14:41:53;7.28;;;1.20;;
51382;SDS011;37475;43.358;1.248;2023-04-15T14:44:19;6.03;;;1.67;;
51382;SDS011;37475;43.358;1.248;2023-04-15T14:46:45;3.55;;;1.05;;
51382;SDS011;37475;43.358;1.248;2023-04-15T14:49:11;5.72;;;1.10;;
51382;SDS011;37475;43.358;1.248;2023-04-15T14:51:37;6.57;;;1.95;;
51382;SDS011;37475;43.358;1.248;2023-04-15T14:54:04;4.03;;;1.00;;
51382;SDS011;37475;43.358;1.248;2023-04-15T14:56:29;4.90;;;1.00;;
51382;SDS011;37475;43.358;1.248;2023-04-15T14:58:55;4.95;;;1.20;;
51382;SDS011;37475;43.358;1.248;2023-04-15T15:01:21;5.68;;;0.95;;
51382;SDS011;37475;43.358;1.248;2023-04-15T15:03:47;5.53;;;1.50;;
51382;SDS011;37475;43.358;1.248;2023-04-15T15:06:14;8.82;;;1.27;;
51382;SDS011;37475;43.358;1.248;2023-04-15T15:08:39;8.68;;;1.33;;
51382;SDS011;37475;43.358;1.248;2023-04-15T15:11:05;5.50;;;1.17;;
51382;SDS011;37475;43.358;1.248;2023-04-15T15:13:31;8.35;;;1.20;;